createdAt,value
2019-05-12T00:00:07.897Z,97445.20
2019-05-12T00:02:39.747Z,97447.41
2019-05-12T00:05:11.118Z,97446.23
2019-05-12T00:07:42.472Z,97446.67
2019-05-12T00:10:14.102Z,97444.48
2019-05-12T00:12:47.918Z,97442.97
2019-05-12T00:15:19.714Z,97452.77
2019-05-12T00:17:50.255Z,97452.03
2019-05-12T00:20:21.931Z,97451.27
2019-05-12T00:22:58.041Z,97454.38
2019-05-12T00:25:29.201Z,97454.95
2019-05-12T00:28:01.251Z,97458.13
2019-05-12T00:30:38.527Z,97457.89
2019-05-12T00:33:09.308Z,97463.20
2019-05-12T00:35:40.404Z,97463.09
2019-05-12T01:03:08.386Z,97493.30
2019-05-12T01:05:38.626Z,97496.50
2019-05-12T01:08:09.843Z,97500.73
2019-05-12T01:10:42.380Z,97505.74
2019-05-12T01:13:12.959Z,97508.44
2019-05-12T01:15:44.501Z,97508.06
2019-05-12T01:18:17.977Z,97520.06
2019-05-12T01:20:48.899Z,97520.59
2019-05-12T01:23:23.231Z,97524.23
2019-05-12T01:25:52.588Z,97527.52
2019-05-12T01:28:24.207Z,97535.55
2019-05-12T01:30:58.225Z,97539.05
2019-05-12T01:33:29.149Z,97545.80
2019-05-12T01:36:00.525Z,97555.19
2019-05-12T01:38:32.327Z,97560.47
2019-05-12T01:41:03.658Z,97562.39
2019-05-12T01:43:35.318Z,97565.61
2019-05-12T01:46:08.039Z,97573.70
2019-05-12T01:48:39.464Z,97578.52
2019-05-12T01:51:10.137Z,97587.02
2019-05-12T01:53:42.088Z,97590.88
2019-05-12T01:56:13.382Z,97600.50
2019-05-12T01:58:44.756Z,97607.63
2019-05-12T02:01:18.400Z,97615.14
2019-05-12T02:03:48.571Z,97618.94
2019-05-12T02:06:19.932Z,97620.05
2019-05-12T02:08:58.075Z,97628.64
2019-05-12T02:11:35.020Z,97632.13
2019-05-12T02:14:09.312Z,97631.64
2019-05-12T02:16:40.778Z,97634.05
2019-05-12T02:19:11.714Z,97633.94
2019-05-12T02:21:43.453Z,97633.66
2019-05-12T02:24:25.266Z,97634.45
2019-05-12T02:26:48.684Z,97640.03
2019-05-12T02:29:19.749Z,97645.82
2019-05-12T02:31:50.491Z,97650.53
2019-05-12T02:34:25.081Z,97652.53
2019-05-12T02:36:55.736Z,97659.50
2019-05-12T02:39:27.160Z,97666.82
2019-05-12T02:41:58.366Z,97662.79
2019-05-12T02:44:29.598Z,97661.95
2019-05-12T02:47:04.358Z,97665.05
2019-05-12T02:49:35.001Z,97669.70
2019-05-12T02:52:06.105Z,97672.22
2019-05-12T02:54:54.371Z,97671.66
2019-05-12T02:57:14.362Z,97676.59
2019-05-12T02:59:47.925Z,97684.84
2019-05-12T03:02:18.967Z,97689.08
2019-05-12T03:04:54.808Z,97683.51
2019-05-12T03:07:27.278Z,97681.31
2019-05-12T03:10:00.165Z,97686.13
2019-05-12T03:12:34.280Z,97690.27
2019-05-12T03:15:05.348Z,97691.87
2019-05-12T03:17:37.348Z,97691.61
2019-05-12T03:20:08.638Z,97691.41
2019-05-12T03:22:38.946Z,97694.52
2019-05-12T03:25:20.005Z,97698.72
2019-05-12T03:28:07.372Z,97705.59
2019-05-12T03:30:38.371Z,97706.59
2019-05-12T03:33:10.548Z,97713.92
2019-05-12T03:35:43.612Z,97715.06
2019-05-12T03:38:14.812Z,97711.98
2019-05-12T03:40:45.557Z,97716.44
2019-05-12T03:43:16.898Z,97721.58
2019-05-12T03:45:48.360Z,97718.77
2019-05-12T03:48:19.693Z,97728.70
2019-05-12T03:50:53.970Z,97725.53
2019-05-12T03:53:24.896Z,97726.22
2019-05-12T03:55:56.295Z,97730.33
2019-05-12T03:58:27.358Z,97724.03
2019-05-12T04:00:58.348Z,97731.92
2019-05-12T04:03:29.719Z,97727.69
2019-05-12T04:06:07.198Z,97734.62
2019-05-12T04:08:39.121Z,97731.86
2019-05-12T04:11:10.531Z,97731.05
2019-05-12T04:13:44.956Z,97741.04
2019-05-12T04:16:16.403Z,97740.98
2019-05-12T04:18:47.093Z,97743.48
2019-05-12T04:21:18.476Z,97750.92
2019-05-12T04:23:49.820Z,97749.33
2019-05-12T04:26:21.082Z,97761.27
2019-05-12T04:28:54.811Z,97762.70
2019-05-12T04:31:26.117Z,97766.87
2019-05-12T04:33:58.148Z,97767.18
2019-05-12T04:36:29.438Z,97775.77
2019-05-12T04:39:00.115Z,97777.80
2019-05-12T04:41:35.099Z,97783.30
2019-05-12T04:44:05.826Z,97782.89
2019-05-12T04:46:37.677Z,97786.78
2019-05-12T04:49:08.632Z,97787.62
2019-05-12T04:51:40.064Z,97792.95
2019-05-12T04:54:14.999Z,97796.20
2019-05-12T04:56:45.220Z,97802.55
2019-05-12T04:59:16.313Z,97813.16
2019-05-12T05:01:47.460Z,97815.53
2019-05-12T05:04:19.010Z,97824.27
2019-05-12T05:06:50.692Z,97820.87
2019-05-12T05:09:24.583Z,97828.64
2019-05-12T05:11:55.873Z,97836.58
2019-05-12T05:14:28.035Z,97835.38
2019-05-12T05:16:59.699Z,97844.09
2019-05-12T05:19:30.660Z,97848.05
2019-05-12T05:22:04.330Z,97852.05
2019-05-12T05:24:35.472Z,97852.72
2019-05-12T05:27:06.581Z,97858.58
2019-05-12T05:29:38.070Z,97862.02
2019-05-12T05:32:09.335Z,97866.42
2019-05-12T05:34:46.245Z,97864.90
2019-05-12T05:37:14.610Z,97872.82
2019-05-12T05:39:49.577Z,97873.42
2019-05-12T05:42:21.996Z,97875.55
2019-05-12T05:44:54.349Z,97883.56
2019-05-12T05:47:28.558Z,97887.55
2019-05-12T05:49:58.443Z,97893.27
2019-05-12T05:52:33.218Z,97890.09
2019-05-12T05:55:05.738Z,97893.14
2019-05-12T05:57:36.077Z,97896.94
2019-05-12T06:00:20.178Z,97895.84
2019-05-12T06:02:40.970Z,97901.18
2019-05-12T06:05:14.430Z,97908.94
2019-05-12T06:07:59.452Z,97909.31
2019-05-12T06:10:36.201Z,97911.09
2019-05-12T06:13:04.719Z,97906.91
2019-05-12T06:15:40.700Z,97901.92
2019-05-12T06:18:08.688Z,97902.56
2019-05-12T06:20:39.762Z,97909.48
2019-05-12T06:23:11.022Z,97907.20
2019-05-12T06:25:49.513Z,97915.00
2019-05-12T06:28:15.463Z,97916.27
2019-05-12T06:30:49.906Z,97914.38
2019-05-12T06:33:22.656Z,97915.14
2019-05-12T06:35:54.405Z,97913.67
2019-05-12T06:38:25.809Z,97920.78
2019-05-12T06:40:57.496Z,97927.05
2019-05-12T06:43:34.053Z,97924.45
2019-05-12T06:46:03.626Z,97931.10
2019-05-12T06:48:48.860Z,97935.39
2019-05-12T06:51:23.777Z,97935.37
2019-05-12T06:53:53.580Z,97946.08
2019-05-12T06:56:24.865Z,97946.06
2019-05-12T06:59:01.022Z,97952.09
2019-05-12T07:01:29.986Z,97958.72
2019-05-12T07:04:05.593Z,97960.20
2019-05-12T07:06:34.002Z,97963.52
2019-05-12T07:09:09.951Z,97962.87
2019-05-12T07:11:47.990Z,97953.01
2019-05-12T07:14:22.465Z,97963.96
2019-05-12T07:17:01.167Z,97965.73
2019-05-12T07:19:25.708Z,97966.09
2019-05-12T07:22:00.090Z,97968.48
2019-05-12T07:24:30.642Z,97967.88
2019-05-12T07:27:08.807Z,97971.77
2019-05-12T07:29:36.011Z,97973.16
2019-05-12T07:32:16.267Z,97977.25
2019-05-12T07:34:39.903Z,97976.19
2019-05-12T07:37:11.766Z,97979.22
2019-05-12T07:39:49.182Z,97974.77
2019-05-12T07:42:25.129Z,97980.98
2019-05-12T07:44:54.716Z,97975.84
2019-05-12T07:47:29.310Z,97987.16
2019-05-12T07:50:00.007Z,97990.47
2019-05-12T07:52:33.616Z,97988.41
2019-05-12T07:55:04.282Z,97993.70
2019-05-12T07:57:51.725Z,98000.56
2019-05-12T08:00:11.517Z,98004.78
2019-05-12T08:02:44.449Z,98006.43
2019-05-12T08:05:19.830Z,98018.09
2019-05-12T08:07:50.519Z,98014.50
2019-05-12T08:10:23.464Z,98017.24
2019-05-12T08:12:59.353Z,98011.63
2019-05-12T08:15:28.181Z,98021.56
2019-05-12T08:17:59.743Z,98013.77
2019-05-12T08:20:31.226Z,98018.41
2019-05-12T08:23:10.332Z,98024.67
2019-05-12T08:25:43.653Z,98019.91
2019-05-12T08:28:18.345Z,98019.91
2019-05-12T08:30:52.147Z,98020.30
2019-05-12T08:33:21.135Z,98023.77
2019-05-12T08:35:52.585Z,98019.08
2019-05-12T08:38:24.862Z,98019.02
2019-05-12T08:40:57.314Z,98020.58
2019-05-12T08:43:29.078Z,98016.92
2019-05-12T08:46:05.817Z,98024.72
2019-05-12T08:48:44.594Z,98029.44
2019-05-12T08:51:19.855Z,98025.63
2019-05-12T08:53:56.224Z,98025.03
2019-05-12T08:56:23.982Z,98032.39
2019-05-12T08:58:55.614Z,98039.65
2019-05-12T09:01:30.769Z,98037.86
2019-05-12T09:04:06.701Z,98038.53
2019-05-12T09:06:35.046Z,98045.23
2019-05-12T09:09:08.843Z,98038.69
2019-05-12T09:11:40.161Z,98046.20
2019-05-12T09:14:11.154Z,98049.33
2019-05-12T09:16:43.984Z,98060.09
2019-05-12T09:19:23.252Z,98055.48
2019-05-12T09:21:49.204Z,98060.72
2019-05-12T09:24:25.710Z,98061.53
2019-05-12T09:26:58.986Z,98066.30
2019-05-12T09:29:27.852Z,98056.80
2019-05-12T09:32:05.364Z,98059.88
2019-05-12T09:34:33.551Z,98065.70
2019-05-12T09:37:04.368Z,98056.44
2019-05-12T09:39:59.899Z,98049.97
2019-05-12T09:42:30.692Z,98057.98
2019-05-12T09:45:06.071Z,98065.02
2019-05-12T09:47:35.569Z,98063.10
2019-05-12T09:50:09.619Z,98065.80
2019-05-12T09:52:40.087Z,98067.00
2019-05-12T09:55:11.558Z,98062.11
2019-05-12T09:57:44.995Z,98071.49
2019-05-12T10:00:16.768Z,98074.03
2019-05-12T10:02:51.256Z,98080.02
2019-05-12T10:05:21.721Z,98080.67
2019-05-12T10:07:53.685Z,98080.54
2019-05-12T10:10:24.439Z,98083.30
2019-05-12T10:12:56.309Z,98078.34
2019-05-12T10:15:28.736Z,98083.34
2019-05-12T10:18:20.938Z,98082.83
2019-05-12T10:20:53.483Z,98083.88
2019-05-12T10:23:27.438Z,98089.97
2019-05-12T10:26:01.508Z,98092.66
2019-05-12T10:28:32.588Z,98083.78
2019-05-12T10:31:04.142Z,98089.97
2019-05-12T10:33:35.581Z,98085.66
2019-05-12T10:36:08.481Z,98081.60
2019-05-12T10:38:39.491Z,98076.00
2019-05-12T10:41:10.512Z,98082.61
2019-05-12T10:43:48.389Z,98076.95
2019-05-12T10:46:18.372Z,98078.83
2019-05-12T10:48:53.884Z,98086.84
2019-05-12T10:51:25.016Z,98089.26
2019-05-12T10:54:07.555Z,98090.44
2019-05-12T10:56:30.383Z,98095.29
2019-05-12T10:59:04.300Z,98095.01
2019-05-12T11:01:38.517Z,98098.70
2019-05-12T11:04:08.845Z,98091.54
2019-05-12T11:06:44.678Z,98087.03
2019-05-12T11:09:13.923Z,98090.95
2019-05-12T11:11:46.940Z,98086.69
2019-05-12T11:14:20.196Z,98086.60
2019-05-12T11:16:54.258Z,98083.97
2019-05-12T11:19:25.880Z,98089.83
2019-05-12T11:21:57.530Z,98090.19
2019-05-12T11:24:29.481Z,98090.13
2019-05-12T11:27:01.378Z,98100.39
2019-05-12T11:29:45.805Z,98093.91
2019-05-12T11:32:05.226Z,98092.80
2019-05-12T11:34:36.725Z,98097.86
2019-05-12T11:37:08.475Z,98099.81
2019-05-12T11:39:44.513Z,98082.46
2019-05-12T11:42:13.658Z,98087.02
2019-05-12T11:44:44.842Z,98084.48
2019-05-12T11:47:23.950Z,98081.41
2019-05-12T11:49:49.660Z,98081.70
2019-05-12T11:52:21.248Z,98088.22
2019-05-12T11:54:54.578Z,98089.99
2019-05-12T11:57:30.172Z,98084.08
2019-05-12T12:00:02.346Z,98088.89
2019-05-12T12:02:34.199Z,98089.39
2019-05-12T12:05:06.581Z,98085.50
2019-05-12T12:07:38.908Z,98088.95
2019-05-12T12:10:14.108Z,98081.50
2019-05-12T12:12:49.146Z,98085.66
2019-05-12T12:15:20.487Z,98074.80
2019-05-12T12:17:53.455Z,98091.33
2019-05-12T12:20:24.383Z,98090.27
2019-05-12T12:23:00.082Z,98093.47
2019-05-12T12:25:33.881Z,98087.84
2019-05-12T12:28:04.739Z,98098.09
2019-05-12T12:30:36.107Z,98102.12
2019-05-12T12:33:07.585Z,98104.72
2019-05-12T12:35:38.941Z,98111.19
2019-05-12T12:38:10.788Z,98105.55
2019-05-12T12:40:44.049Z,98120.91
2019-05-12T12:43:15.216Z,98127.89
2019-05-12T12:45:55.164Z,98140.81
2019-05-12T12:48:29.824Z,98146.59
2019-05-12T12:51:00.687Z,98155.44
2019-05-12T12:53:34.194Z,98157.34
2019-05-12T12:56:04.580Z,98162.63
2019-05-12T12:58:35.290Z,98167.23
2019-05-12T13:01:07.167Z,98166.34
2019-05-12T13:03:38.854Z,98164.25
2019-05-12T13:06:09.909Z,98170.02
2019-05-12T13:08:43.401Z,98169.28
2019-05-12T13:11:14.906Z,98167.88
2019-05-12T13:13:46.271Z,98169.06
2019-05-12T13:16:17.715Z,98175.89
2019-05-12T13:18:49.067Z,98169.56
2019-05-12T13:21:20.618Z,98177.78
2019-05-12T13:23:53.914Z,98179.80
2019-05-12T13:26:24.977Z,98176.17
2019-05-12T13:28:57.084Z,98187.64
2019-05-12T13:31:28.623Z,98190.34
2019-05-12T13:34:00.325Z,98190.95
2019-05-12T13:36:37.376Z,98193.34
2019-05-12T13:39:11.436Z,98195.55
2019-05-12T13:41:40.125Z,98204.73
2019-05-12T13:44:13.707Z,98200.25
2019-05-12T13:46:48.818Z,98200.81
2019-05-12T13:49:17.934Z,98203.92
2019-05-12T13:51:50.392Z,98207.45
2019-05-12T13:54:26.072Z,98214.45
2019-05-12T13:56:55.799Z,98212.03
2019-05-12T13:59:27.208Z,98207.80
2019-05-12T14:01:58.895Z,98209.09
2019-05-12T14:04:30.361Z,98210.16
2019-05-12T14:07:03.753Z,98209.41
2019-05-12T14:09:34.631Z,98214.41
2019-05-12T14:12:06.006Z,98208.95
2019-05-12T14:14:38.070Z,98210.77
2019-05-12T14:17:09.514Z,98209.73
2019-05-12T14:19:41.382Z,98210.22
2019-05-12T14:22:20.985Z,98208.88
2019-05-12T14:24:47.024Z,98209.29
2019-05-12T14:27:23.888Z,98214.02
2019-05-12T14:29:53.668Z,98215.30
2019-05-12T14:32:25.475Z,98206.95
2019-05-12T14:35:00.614Z,98205.67
2019-05-12T14:37:29.946Z,98204.47
2019-05-12T14:40:03.964Z,98203.43
2019-05-12T14:42:39.727Z,98205.91
2019-05-12T14:45:08.495Z,98211.64
2019-05-12T14:47:40.309Z,98216.18
2019-05-12T14:50:11.268Z,98219.02
2019-05-12T14:52:43.993Z,98216.21
2019-05-12T14:55:15.520Z,98220.00
2019-05-12T14:57:47.153Z,98220.50
2019-05-12T15:00:21.281Z,98223.03
2019-05-12T15:02:53.994Z,98222.78
2019-05-12T15:05:27.492Z,98229.73
2019-05-12T15:08:00.354Z,98235.75
2019-05-12T15:10:30.922Z,98233.37
2019-05-12T15:13:03.489Z,98235.47
2019-05-12T15:15:36.836Z,98237.69
2019-05-12T15:18:10.048Z,98242.51
2019-05-12T15:20:41.617Z,98247.77
2019-05-12T15:23:14.289Z,98257.53
2019-05-12T15:25:45.970Z,98253.38
2019-05-12T15:28:17.584Z,98255.13
2019-05-12T15:30:48.749Z,98250.56
2019-05-12T15:33:20.429Z,98239.81
2019-05-12T15:35:54.430Z,98240.89
2019-05-12T15:38:34.047Z,98256.31
2019-05-12T15:41:04.412Z,98253.80
2019-05-12T15:43:44.369Z,98256.19
2019-05-12T15:46:17.037Z,98247.83
2019-05-12T15:48:48.673Z,98253.27
2019-05-12T15:51:26.724Z,98256.17
2019-05-12T15:54:06.228Z,98252.41
2019-05-12T15:56:33.345Z,98257.64
2019-05-12T15:59:04.845Z,98259.21
2019-05-12T16:01:35.888Z,98262.27
2019-05-12T16:04:07.570Z,98262.53
2019-05-12T16:06:44.703Z,98260.50
2019-05-12T16:09:30.669Z,98264.08
2019-05-12T16:12:09.352Z,98269.22
2019-05-12T16:14:41.118Z,98265.00
2019-05-12T16:17:11.193Z,98273.52
2019-05-12T16:19:43.891Z,98265.48
2019-05-12T16:22:15.235Z,98265.58
2019-05-12T16:24:48.973Z,98268.16
2019-05-12T16:27:24.868Z,98266.58
2019-05-12T16:30:04.535Z,98270.75
2019-05-12T16:32:42.935Z,98275.75
2019-05-12T16:35:09.780Z,98273.28
2019-05-12T16:37:41.174Z,98267.83
2019-05-12T16:40:13.705Z,98265.76
2019-05-12T16:42:51.123Z,98269.20
2019-05-12T16:45:20.237Z,98267.94
2019-05-12T16:47:53.624Z,98262.79
2019-05-12T16:50:28.205Z,98272.67
2019-05-12T16:52:59.777Z,98277.59
2019-05-12T16:55:44.931Z,98280.13
2019-05-12T16:58:13.506Z,98279.30
2019-05-12T17:00:49.750Z,98284.66
2019-05-12T17:03:23.952Z,98284.31
2019-05-12T17:05:57.855Z,98283.16
2019-05-12T17:08:28.992Z,98281.30
2019-05-12T17:11:26.133Z,98288.38
2019-05-12T17:13:47.494Z,98296.61
2019-05-12T17:16:14.472Z,98303.02
2019-05-12T17:18:50.426Z,98308.75
2019-05-12T17:21:39.140Z,98307.70
2019-05-12T17:24:10.421Z,98302.13
2019-05-12T17:26:48.022Z,98312.35
2019-05-12T17:29:21.046Z,98309.17
2019-05-12T17:31:53.552Z,98310.63
2019-05-12T17:34:26.018Z,98312.16
2019-05-12T17:37:00.419Z,98317.89
2019-05-12T17:39:37.371Z,98323.19
2019-05-12T17:42:13.197Z,98324.87
2019-05-12T17:44:54.918Z,98322.93
2019-05-12T17:47:26.997Z,98327.48
2019-05-12T17:50:06.718Z,98326.33
2019-05-12T17:52:36.128Z,98328.42
2019-05-12T17:55:11.473Z,98329.93
2019-05-12T17:57:44.331Z,98334.89
2019-05-12T18:00:16.000Z,98338.19
2019-05-12T18:02:49.294Z,98341.24
2019-05-12T18:05:20.325Z,98339.16
2019-05-12T18:07:53.249Z,98342.95
2019-05-12T18:10:24.720Z,98348.13
2019-05-12T18:12:55.709Z,98354.76
2019-05-12T18:15:33.285Z,98353.62
2019-05-12T18:18:04.065Z,98356.55
2019-05-12T18:20:40.016Z,98358.39
2019-05-12T18:23:08.435Z,98361.09
2019-05-12T18:25:39.957Z,98361.95
2019-05-12T18:28:14.000Z,98356.39
2019-05-12T18:30:45.213Z,98361.11
2019-05-12T18:33:29.751Z,98357.48
2019-05-12T18:35:49.731Z,98363.40
2019-05-12T18:38:23.977Z,98361.44
2019-05-12T18:41:03.711Z,98366.11
2019-05-12T18:43:35.379Z,98373.11
2019-05-12T18:46:09.259Z,98376.73
2019-05-12T18:48:41.131Z,98381.76
2019-05-12T18:51:13.709Z,98390.70
2019-05-12T18:53:44.106Z,98384.98
2019-05-12T18:56:21.633Z,98386.91
2019-05-12T18:58:48.810Z,98389.77
2019-05-12T19:01:25.981Z,98392.28
2019-05-12T19:04:04.017Z,98395.63
2019-05-12T19:06:39.708Z,98392.89
2019-05-12T19:09:16.837Z,98398.73
2019-05-12T19:11:53.524Z,98409.25
2019-05-12T19:14:34.792Z,98411.02
2019-05-12T19:17:03.757Z,98403.70
2019-05-12T19:19:38.371Z,98406.64
2019-05-12T19:22:14.073Z,98405.32
2019-05-12T19:24:58.258Z,98405.34
2019-05-12T19:27:37.668Z,98413.36
2019-05-12T19:30:24.774Z,98416.33
2019-05-12T19:33:00.155Z,98414.59
2019-05-12T19:35:39.296Z,98415.23
2019-05-12T19:38:15.581Z,98425.65
2019-05-12T19:40:56.326Z,98423.52
2019-05-12T19:43:25.480Z,98422.03
2019-05-12T19:46:02.909Z,98422.52
2019-05-12T19:48:42.508Z,98424.60
2019-05-12T19:51:21.837Z,98425.40
2019-05-12T19:53:49.155Z,98427.27
2019-05-12T19:56:23.825Z,98431.89
2019-05-12T19:58:56.719Z,98435.08
2019-05-12T20:01:32.880Z,98438.41
2019-05-12T20:04:03.884Z,98439.58
2019-05-12T20:06:35.443Z,98441.24
2019-05-12T20:09:19.473Z,98440.64
2019-05-12T20:11:50.971Z,98437.57
2019-05-12T20:14:24.213Z,98445.36
2019-05-12T20:16:57.337Z,98445.55
2019-05-12T20:19:34.115Z,98445.41
2019-05-12T20:22:06.166Z,98442.84
2019-05-12T20:24:45.815Z,98442.20
2019-05-12T20:27:24.582Z,98441.56
2019-05-12T20:30:17.157Z,98444.42
2019-05-12T20:32:55.898Z,98443.41
2019-05-12T20:35:28.971Z,98443.06
2019-05-12T20:38:15.101Z,98443.27
2019-05-12T20:40:54.102Z,98446.66
2019-05-12T20:43:38.116Z,98449.27
2019-05-12T20:46:13.014Z,98451.15
2019-05-12T20:48:48.983Z,98452.77
2019-05-12T20:51:24.454Z,98453.92
2019-05-12T20:54:05.613Z,98454.05
2019-05-12T20:56:43.535Z,98455.72
2019-05-12T20:59:27.956Z,98461.71
2019-05-12T21:01:55.167Z,98463.03
2019-05-12T21:04:31.899Z,98463.72
2019-05-12T21:07:04.836Z,98457.73
2019-05-12T21:09:39.463Z,98457.45
2019-05-12T21:12:13.823Z,98465.66
2019-05-12T21:14:51.436Z,98459.45
2019-05-12T21:17:39.452Z,98464.88
2019-05-12T21:20:04.553Z,98466.37
2019-05-12T21:22:47.347Z,98461.05
2019-05-12T21:25:27.975Z,98453.39
2019-05-12T21:28:07.593Z,98451.39
2019-05-12T21:30:42.475Z,98450.80
2019-05-12T21:33:14.669Z,98457.95
2019-05-12T21:35:47.356Z,98463.45
2019-05-12T21:38:27.458Z,98455.85
2019-05-12T21:41:02.088Z,98458.96
2019-05-12T21:43:34.634Z,98460.48
2019-05-12T21:46:12.282Z,98458.66
2019-05-12T21:48:47.460Z,98456.72
2019-05-12T21:51:27.467Z,98451.53
2019-05-12T21:53:58.657Z,98447.38
2019-05-12T21:56:35.787Z,98456.16
2019-05-12T21:59:04.186Z,98453.07
2019-05-12T22:01:43.132Z,98451.25
2019-05-12T22:04:11.659Z,98453.70
2019-05-12T22:06:43.932Z,98450.00
2019-05-12T22:09:23.861Z,98455.41
2019-05-12T22:11:56.419Z,98449.00
2019-05-12T22:14:30.302Z,98452.92
2019-05-12T22:17:06.164Z,98451.61
2019-05-12T22:19:44.349Z,98450.78
2019-05-12T22:22:29.899Z,98444.63
2019-05-12T22:25:09.837Z,98443.02
2019-05-12T22:27:50.724Z,98440.41
2019-05-12T22:30:23.954Z,98445.45
2019-05-12T22:32:59.543Z,98440.58
2019-05-12T22:35:28.015Z,98444.58
2019-05-12T22:37:59.262Z,98446.35
2019-05-12T22:40:30.998Z,98450.86
2019-05-12T22:43:04.587Z,98447.73
2019-05-12T22:45:44.378Z,98442.01
2019-05-12T22:48:09.546Z,98442.71
2019-05-12T22:50:40.724Z,98441.53
2019-05-12T22:53:13.538Z,98442.75
2019-05-12T22:55:44.668Z,98443.61
2019-05-12T22:58:18.244Z,98447.88
2019-05-12T23:01:00.734Z,98446.65
2019-05-12T23:03:30.215Z,98452.27
2019-05-12T23:06:13.135Z,98454.77
2019-05-12T23:08:47.133Z,98450.80
2019-05-12T23:11:15.384Z,98451.13
2019-05-12T23:13:53.299Z,98446.66
2019-05-12T23:16:29.283Z,98451.08
2019-05-12T23:19:11.908Z,98447.06
2019-05-12T23:21:49.241Z,98456.72
2019-05-12T23:24:30.338Z,98457.64
2019-05-12T23:27:08.580Z,98456.75
2019-05-12T23:29:40.834Z,98455.59
2019-05-12T23:32:19.822Z,98459.67
2019-05-12T23:34:56.493Z,98456.10
2019-05-12T23:37:24.504Z,98454.89
2019-05-12T23:39:55.634Z,98446.09
2019-05-12T23:42:27.064Z,98443.19
2019-05-12T23:45:06.249Z,98439.96
2019-05-12T23:47:43.940Z,98437.08
2019-05-12T23:50:23.999Z,98432.78
2019-05-12T23:52:58.957Z,98433.14
2019-05-12T23:55:38.906Z,98420.39
2019-05-12T23:58:14.677Z,98426.98
